createdAt,value
2019-04-20T00:02:07.411Z,6.97
2019-04-20T00:04:05.391Z,7.93
2019-04-20T00:06:12.843Z,7.00
2019-04-20T00:08:23.171Z,7.10
2019-04-20T00:10:28.961Z,7.10
2019-04-20T00:12:57.037Z,7.17
2019-04-20T00:14:48.264Z,7.50
2019-04-20T00:17:01.034Z,7.53
2019-04-20T00:19:06.818Z,8.03
2019-04-20T00:21:29.090Z,7.73
2019-04-20T00:23:45.361Z,8.87
2019-04-20T00:26:14.852Z,7.10
2019-04-20T00:28:33.727Z,8.93
2019-04-20T00:30:46.808Z,7.30
2019-04-20T00:32:50.187Z,8.00
2019-04-20T00:34:47.260Z,7.90
2019-04-20T00:37:00.159Z,8.40
2019-04-20T00:39:13.215Z,7.00
2019-04-20T00:41:20.322Z,8.00
2019-04-20T00:43:34.272Z,8.27
2019-04-20T00:45:51.963Z,9.40
2019-04-20T00:48:22.446Z,9.20
2019-04-20T00:50:37.891Z,8.53
2019-04-20T00:52:51.333Z,9.30
2019-04-20T00:54:45.326Z,8.37
2019-04-20T00:57:05.753Z,8.70
2019-04-20T00:59:17.201Z,8.43
2019-04-20T01:01:34.741Z,9.50
2019-04-20T01:03:33.898Z,8.97
2019-04-20T01:06:02.255Z,9.80
2019-04-20T01:08:01.601Z,9.30
2019-04-20T01:10:15.760Z,9.30
2019-04-20T01:12:33.782Z,8.80
2019-04-20T01:15:04.273Z,9.20
2019-04-20T01:17:24.877Z,9.27
2019-04-20T01:19:35.098Z,9.20
2019-04-20T01:21:57.899Z,9.77
2019-04-20T01:24:16.220Z,10.27
2019-04-20T01:26:27.717Z,9.40
2019-04-20T01:28:46.413Z,8.93
2019-04-20T01:30:58.561Z,10.23
2019-04-20T01:33:11.140Z,9.13
2019-04-20T01:35:24.845Z,9.90
2019-04-20T01:37:25.754Z,9.20
2019-04-20T01:39:37.157Z,8.80
2019-04-20T01:41:37.183Z,9.70
2019-04-20T01:43:52.405Z,10.90
2019-04-20T01:46:08.186Z,10.93
2019-04-20T01:48:24.957Z,11.77
2019-04-20T01:50:33.645Z,10.80
2019-04-20T01:53:08.641Z,10.30
2019-04-20T01:55:51.105Z,11.23
2019-04-20T01:58:13.816Z,10.80
2019-04-20T02:00:47.363Z,11.43
2019-04-20T02:03:41.799Z,11.87
2019-04-20T02:05:38.638Z,10.03
2019-04-20T02:07:49.324Z,11.37
2019-04-20T02:09:59.807Z,10.60
2019-04-20T02:12:21.598Z,10.77
2019-04-20T02:14:32.209Z,11.10
2019-04-20T02:16:45.288Z,11.53
2019-04-20T02:19:09.018Z,11.10
2019-04-20T02:21:34.298Z,10.37
2019-04-20T02:23:45.816Z,11.77
2019-04-20T02:25:44.052Z,11.50
2019-04-20T02:28:15.678Z,11.53
2019-04-20T02:30:38.182Z,12.13
2019-04-20T02:33:07.022Z,12.23
2019-04-20T02:35:21.194Z,10.87
2019-04-20T02:37:59.840Z,11.93
2019-04-20T02:40:12.888Z,11.23
2019-04-20T02:42:19.722Z,12.93
2019-04-20T02:46:48.959Z,12.77
2019-04-20T02:49:06.166Z,13.90
2019-04-20T02:51:08.446Z,12.97
2019-04-20T02:53:20.390Z,13.03
2019-04-20T02:55:32.204Z,11.20
2019-04-20T03:00:05.696Z,13.40
2019-04-20T03:02:21.924Z,12.60
2019-04-20T03:04:39.632Z,11.63
2019-04-20T03:06:59.310Z,13.07
2019-04-20T03:09:17.707Z,11.53
2019-04-20T03:11:22.242Z,13.70
2019-04-20T03:13:32.328Z,11.07
2019-04-20T03:15:42.404Z,12.83
2019-04-20T03:18:03.497Z,11.73
2019-04-20T03:20:18.824Z,13.20
2019-04-20T03:22:48.030Z,12.43
2019-04-20T03:24:46.866Z,12.80
2019-04-20T03:27:00.851Z,12.37
2019-04-20T03:29:18.840Z,13.17
2019-04-20T03:31:54.327Z,12.23
2019-04-20T03:34:15.544Z,12.03
2019-04-20T03:36:07.618Z,13.17
2019-04-20T03:38:10.674Z,12.67
2019-04-20T03:40:13.840Z,12.47
2019-04-20T03:42:09.288Z,12.90
2019-04-20T03:44:20.954Z,13.47
2019-04-20T03:46:54.076Z,14.67
2019-04-20T03:49:08.545Z,13.50
2019-04-20T03:51:25.213Z,13.53
2019-04-20T03:53:31.282Z,14.10
2019-04-20T03:56:02.204Z,13.83
2019-04-20T03:58:19.722Z,14.47
2019-04-20T04:00:59.839Z,13.80
2019-04-20T04:03:36.137Z,13.97
2019-04-20T04:05:46.129Z,14.40
2019-04-20T04:07:43.777Z,13.07
2019-04-20T04:10:01.192Z,14.20
2019-04-20T04:12:03.957Z,13.73
2019-04-20T04:13:58.768Z,14.37
2019-04-20T04:16:15.499Z,15.37
2019-04-20T04:18:34.704Z,14.37
2019-04-20T04:20:51.289Z,15.60
2019-04-20T04:23:10.500Z,13.70
2019-04-20T04:25:17.065Z,14.10
2019-04-20T04:27:32.594Z,14.40
2019-04-20T04:29:48.568Z,13.70
2019-04-20T04:32:01.118Z,13.50
2019-04-20T04:34:04.841Z,13.90
2019-04-20T04:36:08.889Z,15.87
2019-04-20T04:38:24.072Z,14.73
2019-04-20T04:40:49.510Z,14.93
2019-04-20T04:43:00.759Z,13.50
2019-04-20T04:45:00.566Z,12.93
2019-04-20T04:47:03.291Z,12.57
2019-04-20T04:49:24.131Z,12.80
2019-04-20T04:51:25.696Z,12.90
2019-04-20T04:53:47.935Z,12.80
2019-04-20T04:55:54.663Z,13.60
2019-04-20T04:58:02.317Z,11.47
2019-04-20T05:00:17.753Z,13.03
2019-04-20T05:02:29.772Z,12.60
2019-04-20T05:05:10.385Z,13.07
2019-04-20T05:07:16.585Z,14.20
2019-04-20T05:09:23.822Z,10.73
2019-04-20T05:12:05.483Z,11.57
2019-04-20T05:14:03.062Z,11.60
2019-04-20T05:16:19.311Z,12.13
2019-04-20T05:18:44.855Z,11.47
2019-04-20T05:21:07.374Z,10.67
2019-04-20T05:23:37.593Z,10.73
2019-04-20T05:26:14.686Z,10.67
2019-04-20T05:28:24.344Z,11.43
2019-04-20T05:30:22.665Z,10.50
2019-04-20T05:32:45.582Z,12.80
2019-04-20T05:35:12.306Z,12.07
2019-04-20T05:39:50.645Z,11.33
2019-04-20T05:42:26.118Z,12.70
2019-04-20T05:44:46.084Z,10.90
2019-04-20T05:47:19.632Z,12.87
2019-04-20T05:49:40.272Z,11.30
2019-04-20T05:54:56.267Z,11.90
2019-04-20T05:57:15.008Z,10.03
2019-04-20T05:59:35.042Z,11.50
2019-04-20T06:04:17.298Z,11.17
2019-04-20T06:06:55.417Z,10.03
2019-04-20T06:09:39.997Z,11.03
2019-04-20T06:14:20.923Z,11.20
2019-04-20T06:16:57.787Z,11.50
2019-04-20T06:20:00.478Z,12.20
2019-04-20T06:26:13.165Z,11.80
2019-04-20T06:28:23.185Z,11.40
2019-04-20T06:39:17.264Z,9.90
2019-04-20T06:42:15.342Z,11.23
2019-04-20T06:45:04.548Z,10.40
2019-04-20T06:47:39.684Z,10.00
2019-04-20T06:50:07.205Z,10.20
2019-04-20T06:52:35.334Z,10.47
2019-04-20T06:55:14.177Z,11.57
2019-04-20T06:58:31.862Z,11.37
2019-04-20T07:00:27.614Z,11.90
2019-04-20T07:04:59.752Z,12.50
2019-04-20T07:07:22.697Z,11.13
2019-04-20T07:12:33.096Z,9.73
2019-04-20T07:18:24.549Z,9.77
2019-04-20T07:20:57.738Z,9.60
2019-04-20T07:26:59.205Z,10.57
2019-04-20T07:39:23.745Z,9.77
2019-04-20T07:41:43.325Z,9.77
2019-04-20T07:44:03.429Z,9.30
2019-04-20T07:46:21.819Z,9.17
2019-04-20T07:48:27.651Z,9.77
2019-04-20T07:50:52.334Z,10.23
2019-04-20T07:54:10.655Z,10.17
2019-04-20T08:03:33.815Z,11.00
2019-04-20T08:06:19.322Z,11.13
2019-04-20T08:21:38.330Z,10.77
2019-04-20T08:23:54.052Z,10.20
2019-04-20T08:24:43.943Z,11.50
2019-04-20T08:36:51.224Z,11.40
2019-04-20T08:50:03.096Z,11.27
2019-04-20T08:58:03.055Z,11.10
2019-04-20T09:00:06.850Z,11.23
2019-04-20T09:06:41.543Z,10.50
2019-04-20T09:15:34.151Z,10.20
2019-04-20T09:18:09.079Z,10.23
2019-04-20T09:29:12.346Z,9.53
2019-04-20T09:35:11.415Z,9.40
2019-04-20T09:37:24.678Z,8.77
2019-04-20T09:40:00.923Z,10.20
2019-04-20T09:45:23.233Z,8.60
2019-04-20T09:48:18.256Z,10.53
2019-04-20T09:50:27.803Z,9.77
2019-04-20T09:59:12.220Z,9.13
2019-04-20T10:01:34.030Z,8.40
2019-04-20T10:04:21.796Z,9.37
2019-04-20T10:09:32.190Z,10.30
2019-04-20T10:11:57.528Z,11.53
2019-04-20T10:14:35.276Z,10.37
2019-04-20T10:20:43.147Z,9.03
2019-04-20T10:23:06.710Z,9.43
2019-04-20T10:25:13.333Z,7.80
2019-04-20T10:28:09.791Z,8.60
2019-04-20T10:33:42.115Z,9.27
2019-04-20T10:36:17.358Z,9.13
2019-04-20T10:38:48.724Z,9.43
2019-04-20T10:41:29.733Z,7.63
2019-04-20T10:44:18.637Z,9.03
2019-04-20T10:46:53.370Z,8.93
2019-04-20T10:49:45.106Z,8.43
2019-04-20T10:52:25.831Z,9.30
2019-04-20T10:55:06.262Z,7.47
2019-04-20T10:58:02.142Z,10.10
2019-04-20T11:00:35.578Z,8.50
2019-04-20T11:03:08.074Z,9.97
2019-04-20T11:05:35.124Z,9.60
2019-04-20T11:08:10.672Z,8.97
2019-04-20T11:10:49.402Z,8.70
2019-04-20T11:12:50.553Z,9.37
2019-04-20T11:15:12.859Z,8.87
2019-04-20T11:17:33.532Z,8.77
2019-04-20T11:23:10.962Z,10.67
2019-04-20T11:26:00.181Z,10.90
2019-04-20T11:28:19.918Z,10.27
2019-04-20T11:31:59.518Z,8.50
2019-04-20T11:33:42.571Z,9.73
2019-04-20T11:35:57.100Z,8.77
2019-04-20T11:38:35.718Z,10.40
2019-04-20T11:41:32.727Z,10.80
2019-04-20T11:43:57.921Z,9.57
2019-04-20T11:55:22.299Z,9.60
2019-04-20T11:58:00.117Z,10.17
2019-04-20T12:01:27.168Z,10.97
2019-04-20T12:03:53.035Z,9.80
2019-04-20T12:06:41.047Z,10.50
2019-04-20T12:09:15.277Z,10.20
2019-04-20T12:12:35.206Z,11.60
2019-04-20T12:15:37.435Z,14.10
2019-04-20T12:18:09.574Z,10.30
2019-04-20T12:20:34.629Z,10.40
2019-04-20T12:23:10.566Z,10.90
2019-04-20T12:25:46.292Z,8.73
2019-04-20T12:28:25.400Z,9.30
2019-04-20T12:30:44.257Z,7.43
2019-04-20T12:33:34.546Z,7.20
2019-04-20T12:35:44.693Z,10.27
2019-04-20T12:38:03.146Z,10.43
2019-04-20T12:40:12.221Z,8.87
2019-04-20T12:42:43.160Z,9.30
2019-04-20T12:45:21.716Z,9.37
2019-04-20T12:47:55.544Z,9.83
2019-04-20T12:50:47.900Z,10.80
2019-04-20T12:53:14.823Z,10.60
2019-04-20T12:55:36.812Z,8.77
2019-04-20T12:58:32.446Z,9.70
2019-04-20T13:01:20.186Z,8.67
2019-04-20T13:03:53.206Z,9.40
2019-04-20T13:06:03.725Z,9.73
2019-04-20T13:08:41.741Z,8.30
2019-04-20T13:11:10.938Z,8.60
2019-04-20T13:14:20.148Z,8.70
2019-04-20T13:16:40.600Z,8.90
2019-04-20T13:19:06.787Z,7.67
2019-04-20T13:21:27.065Z,8.90
2019-04-20T13:23:40.680Z,7.90
2019-04-20T13:25:53.488Z,9.30
2019-04-20T13:28:16.966Z,9.20
2019-04-20T13:30:43.894Z,9.13
2019-04-20T13:32:57.304Z,9.53
2019-04-20T13:35:28.198Z,9.57
2019-04-20T13:38:20.304Z,9.80
2019-04-20T13:40:56.074Z,9.93
2019-04-20T13:45:37.138Z,8.33
2019-04-20T13:48:06.653Z,8.50
2019-04-20T13:50:14.462Z,9.47
2019-04-20T13:52:41.070Z,8.20
2019-04-20T13:55:21.942Z,6.70
2019-04-20T13:57:55.870Z,8.30
2019-04-20T14:00:13.821Z,8.77
2019-04-20T14:02:46.694Z,8.77
2019-04-20T14:04:57.328Z,8.03
2019-04-20T14:07:14.159Z,6.60
2019-04-20T14:09:21.477Z,7.97
2019-04-20T14:11:31.213Z,8.20
2019-04-20T14:13:48.091Z,7.70
2019-04-20T14:16:09.172Z,8.27
2019-04-20T14:18:22.867Z,7.97
2019-04-20T14:20:36.133Z,8.40
2019-04-20T14:22:56.933Z,8.30
2019-04-20T14:25:29.559Z,8.13
2019-04-20T14:28:15.346Z,7.47
2019-04-20T14:30:24.792Z,6.40
2019-04-20T14:32:48.120Z,7.63
2019-04-20T14:38:20.182Z,6.97
2019-04-20T14:40:48.392Z,9.00
2019-04-20T14:45:50.554Z,8.17
2019-04-20T14:48:16.397Z,7.40
2019-04-20T14:50:48.023Z,7.30
2019-04-20T14:53:02.019Z,8.20
2019-04-20T14:55:39.715Z,7.67
2019-04-20T14:58:08.957Z,7.53
2019-04-20T15:03:03.626Z,7.50
2019-04-20T15:05:57.700Z,6.87
2019-04-20T15:11:32.541Z,7.57
2019-04-20T15:13:58.574Z,6.80
2019-04-20T15:16:17.379Z,6.70
2019-04-20T15:18:43.162Z,6.93
2019-04-20T15:21:05.717Z,7.40
2019-04-20T15:23:53.777Z,6.60
2019-04-20T15:26:56.692Z,6.57
2019-04-20T15:29:12.552Z,7.00
2019-04-20T15:31:38.903Z,7.50
2019-04-20T15:39:47.310Z,7.40
2019-04-20T15:40:45.049Z,7.60
2019-04-20T15:41:57.111Z,8.50
2019-04-20T15:44:17.505Z,7.23
2019-04-20T15:49:26.562Z,6.70
2019-04-20T15:51:57.635Z,6.27
2019-04-20T15:54:15.588Z,7.73
2019-04-20T15:56:42.463Z,7.27
2019-04-20T15:59:40.207Z,8.10
2019-04-20T16:04:48.721Z,7.57
2019-04-20T16:07:15.099Z,6.67
2019-04-20T16:10:39.332Z,8.00
2019-04-20T16:13:44.134Z,6.03
2019-04-20T16:16:10.069Z,6.10
2019-04-20T16:18:50.724Z,6.90
2019-04-20T16:21:17.814Z,8.20
2019-04-20T16:23:30.420Z,7.13
2019-04-20T16:26:13.602Z,6.80
2019-04-20T16:28:30.214Z,6.30
2019-04-20T16:30:51.919Z,6.60
2019-04-20T16:33:14.653Z,6.10
2019-04-20T16:36:02.719Z,6.63
2019-04-20T16:38:47.733Z,5.60
2019-04-20T16:48:08.497Z,6.33
2019-04-20T16:50:41.168Z,5.60
2019-04-20T16:53:12.657Z,5.70
2019-04-20T16:55:50.588Z,6.10
2019-04-20T16:58:03.797Z,5.60
2019-04-20T17:00:27.415Z,6.10
2019-04-20T17:03:04.983Z,4.97
2019-04-20T17:05:21.056Z,5.70
2019-04-20T17:07:55.498Z,4.50
2019-04-20T17:10:33.287Z,5.60
2019-04-20T17:13:15.593Z,5.20
2019-04-20T17:15:45.611Z,5.10
2019-04-20T17:18:16.538Z,5.70
2019-04-20T17:20:27.553Z,4.30
2019-04-20T17:23:23.384Z,4.80
2019-04-20T17:26:20.946Z,4.83
2019-04-20T17:29:28.171Z,5.30
2019-04-20T17:32:49.598Z,4.87
2019-04-20T17:35:33.894Z,5.50
2019-04-20T17:40:26.454Z,6.07
2019-04-20T17:42:36.348Z,5.23
2019-04-20T17:44:44.817Z,5.10
2019-04-20T17:46:58.751Z,5.67
2019-04-20T17:49:24.412Z,6.13
2019-04-20T17:51:47.940Z,6.43
2019-04-20T17:53:59.426Z,5.97
2019-04-20T17:56:11.740Z,6.10
2019-04-20T17:58:28.971Z,5.13
2019-04-20T18:01:03.614Z,5.20
2019-04-20T18:06:27.557Z,5.93
2019-04-20T18:08:45.495Z,5.10
2019-04-20T18:10:55.941Z,6.57
2019-04-20T18:13:07.066Z,5.70
2019-04-20T18:15:43.837Z,5.10
2019-04-20T18:18:29.386Z,4.23
2019-04-20T18:20:46.610Z,4.63
2019-04-20T18:23:00.532Z,4.03
2019-04-20T18:25:29.875Z,4.30
2019-04-20T18:27:42.293Z,3.90
2019-04-20T18:29:58.793Z,3.77
2019-04-20T18:32:27.454Z,3.50
2019-04-20T18:35:07.944Z,2.97
2019-04-20T18:37:25.750Z,3.07
2019-04-20T18:39:41.430Z,3.27
2019-04-20T18:42:49.273Z,5.27
2019-04-20T18:45:55.199Z,3.60
2019-04-20T18:48:48.514Z,2.93
2019-04-20T18:53:45.028Z,3.23
2019-04-20T18:59:35.931Z,3.10
2019-04-20T19:02:56.103Z,4.27
2019-04-20T19:05:35.659Z,3.63
2019-04-20T19:10:43.428Z,4.10
2019-04-20T19:13:58.869Z,4.10
2019-04-20T19:19:04.332Z,3.90
2019-04-20T19:23:47.605Z,4.50
2019-04-20T19:26:14.404Z,3.80
2019-04-20T19:28:37.786Z,3.80
2019-04-20T19:31:38.038Z,3.67
2019-04-20T19:34:18.556Z,3.97
2019-04-20T19:36:31.759Z,4.60
2019-04-20T19:39:01.378Z,3.97
2019-04-20T19:41:25.370Z,4.67
2019-04-20T19:43:39.938Z,3.87
2019-04-20T19:46:33.632Z,5.20
2019-04-20T19:48:22.105Z,4.90
2019-04-20T19:51:08.383Z,3.80
2019-04-20T19:53:16.416Z,4.17
2019-04-20T19:55:25.590Z,5.43
2019-04-20T19:57:37.155Z,4.67
2019-04-20T19:59:41.249Z,4.60
2019-04-20T20:01:55.851Z,4.37
2019-04-20T20:04:19.588Z,4.73
2019-04-20T20:06:43.161Z,4.13
2019-04-20T20:09:00.192Z,5.30
2019-04-20T20:11:09.642Z,4.43
2019-04-20T20:13:24.218Z,4.87
2019-04-20T20:15:52.526Z,4.63
2019-04-20T20:18:19.422Z,5.03
2019-04-20T20:20:42.923Z,4.40
2019-04-20T20:23:03.796Z,4.70
2019-04-20T20:26:07.046Z,5.30
2019-04-20T20:31:29.784Z,5.40
2019-04-20T20:33:53.354Z,4.50
2019-04-20T20:36:36.105Z,4.10
2019-04-20T20:39:19.635Z,4.33
2019-04-20T20:42:22.011Z,5.27
2019-04-20T20:44:51.719Z,5.70
2019-04-20T20:47:48.469Z,4.87
2019-04-20T20:50:47.949Z,5.27
2019-04-20T20:53:49.804Z,4.27
2019-04-20T20:56:13.358Z,5.07
2019-04-20T20:58:52.031Z,5.47
2019-04-20T21:01:09.196Z,5.13
2019-04-20T21:03:38.420Z,6.20
2019-04-20T21:06:32.863Z,4.90
2019-04-20T21:11:42.189Z,6.50
2019-04-20T21:13:54.643Z,5.27
2019-04-20T21:16:26.617Z,5.40
2019-04-20T21:19:05.601Z,5.43
2019-04-20T21:21:17.934Z,4.97
2019-04-20T21:23:37.009Z,6.20
2019-04-20T21:26:10.987Z,6.07
2019-04-20T21:28:37.704Z,5.60
2019-04-20T21:30:53.324Z,6.00
2019-04-20T21:33:20.664Z,6.67
2019-04-20T21:35:38.154Z,6.40
2019-04-20T21:38:01.669Z,6.97
2019-04-20T21:40:21.634Z,6.40
2019-04-20T21:42:42.485Z,7.30
2019-04-20T21:44:50.851Z,7.00
2019-04-20T21:47:15.684Z,7.50
2019-04-20T21:49:47.518Z,7.30
2019-04-20T21:51:57.260Z,7.43
2019-04-20T21:54:07.749Z,6.90
2019-04-20T21:56:25.912Z,7.40
2019-04-20T21:58:43.561Z,7.23
2019-04-20T22:01:21.515Z,8.43
2019-04-20T22:03:27.913Z,7.80
2019-04-20T22:05:53.398Z,7.57
2019-04-20T22:08:26.219Z,7.63
2019-04-20T22:10:51.131Z,7.50
2019-04-20T22:13:25.514Z,8.10
2019-04-20T22:16:01.990Z,7.40
2019-04-20T22:18:28.809Z,8.40
2019-04-20T22:21:27.794Z,9.13
2019-04-20T22:23:51.092Z,8.33
2019-04-20T22:26:10.715Z,9.07
2019-04-20T22:28:24.407Z,8.43
2019-04-20T22:30:48.335Z,8.13
2019-04-20T22:33:12.219Z,8.20
2019-04-20T22:35:22.295Z,10.47
2019-04-20T22:37:47.653Z,9.10
2019-04-20T22:40:21.547Z,8.90
2019-04-20T22:42:37.911Z,9.63
2019-04-20T22:45:01.912Z,9.30
2019-04-20T22:47:20.786Z,8.57
2019-04-20T22:52:26.931Z,10.03
2019-04-20T22:54:42.281Z,9.57
2019-04-20T22:57:08.754Z,9.50
2019-04-20T22:59:37.445Z,10.90
2019-04-20T23:01:44.416Z,10.90
2019-04-20T23:04:10.844Z,11.80
2019-04-20T23:06:47.913Z,11.60
2019-04-20T23:09:05.688Z,11.83
2019-04-20T23:11:30.649Z,11.20
2019-04-20T23:13:53.008Z,10.90
2019-04-20T23:16:49.183Z,10.97
2019-04-20T23:19:30.012Z,9.73
2019-04-20T23:21:46.308Z,10.97
2019-04-20T23:24:13.294Z,10.23
2019-04-20T23:26:42.166Z,10.90
2019-04-20T23:29:01.330Z,10.40
2019-04-20T23:31:28.707Z,11.93
2019-04-20T23:33:52.030Z,11.13
2019-04-20T23:36:11.831Z,11.87
2019-04-20T23:38:37.141Z,10.97
2019-04-20T23:43:45.168Z,13.90
2019-04-20T23:46:33.399Z,14.10
2019-04-20T23:49:24.061Z,16.03
2019-04-20T23:52:32.110Z,16.23
2019-04-20T23:54:59.183Z,15.27
2019-04-20T23:57:11.861Z,16.57
2019-04-20T23:59:53.757Z,15.07
